createdAt,value
2022-08-17T00:00:43.570Z,31.90
2022-08-17T00:01:27.479Z,29.50
2022-08-17T00:02:26.830Z,29.40
2022-08-17T00:03:25.754Z,29.30
2022-08-17T00:04:25.705Z,29.80
2022-08-17T00:05:25.696Z,33.50
2022-08-17T00:06:25.691Z,30.70
2022-08-17T00:07:25.682Z,31.70
2022-08-17T00:08:25.649Z,32.00
2022-08-17T00:09:25.653Z,44.50
2022-08-17T00:10:25.621Z,36.80
2022-08-17T00:11:25.611Z,46.60
2022-08-17T00:12:43.513Z,48.90
2022-08-17T00:13:26.585Z,52.70
2022-08-17T00:14:25.575Z,43.00
2022-08-17T00:15:25.574Z,38.10
2022-08-17T00:16:50.414Z,52.10
2022-08-17T00:17:26.563Z,44.90
2022-08-17T00:19:02.139Z,49.40
2022-08-17T00:19:26.504Z,65.60
2022-08-17T00:20:30.440Z,66.50
2022-08-17T00:21:26.488Z,50.60
2022-08-17T00:22:33.752Z,63.70
2022-08-17T00:23:26.453Z,46.40
2022-08-17T00:24:25.439Z,55.00
2022-08-17T00:25:25.423Z,60.20
2022-08-17T00:26:43.415Z,40.00
2022-08-17T00:27:26.409Z,129.20
2022-08-17T00:28:25.413Z,102.00
2022-08-17T00:29:25.381Z,90.00
2022-08-17T00:30:25.347Z,98.90
2022-08-17T00:31:25.339Z,85.30
2022-08-17T00:33:11.614Z,66.80
2022-08-17T00:33:26.750Z,66.20
2022-08-17T00:34:25.412Z,65.10
2022-08-17T00:35:25.293Z,63.30
2022-08-17T00:36:25.261Z,67.60
2022-08-17T00:37:25.261Z,59.50
2022-08-17T00:38:25.253Z,62.40
2022-08-17T00:39:25.295Z,63.00
2022-08-17T00:40:25.212Z,57.30
2022-08-17T00:41:25.215Z,58.30
2022-08-17T00:42:28.932Z,55.00
2022-08-17T00:43:26.181Z,55.30
2022-08-17T00:44:25.174Z,55.80
2022-08-17T00:45:26.163Z,48.20
2022-08-17T00:46:25.145Z,47.70
2022-08-17T00:47:25.140Z,45.80
2022-08-17T00:48:29.517Z,49.80
2022-08-17T00:49:26.108Z,34.20
2022-08-17T00:50:25.074Z,29.30
2022-08-17T00:51:25.106Z,31.30
2022-08-17T00:52:25.059Z,33.30
2022-08-17T00:53:25.036Z,32.50
2022-08-17T00:54:25.030Z,35.00
2022-08-17T00:55:25.029Z,35.00
2022-08-17T00:56:24.997Z,34.00
2022-08-17T00:57:25.031Z,32.70
2022-08-17T00:58:35.848Z,32.20
2022-08-17T00:59:25.958Z,32.70
2022-08-17T01:00:24.951Z,32.90
2022-08-17T01:01:24.952Z,31.70
2022-08-17T01:02:24.955Z,33.50
2022-08-17T01:03:24.913Z,33.60
2022-08-17T01:04:24.879Z,36.10
2022-08-17T01:05:25.384Z,34.10
2022-08-17T01:06:24.851Z,34.20
2022-08-17T01:07:24.849Z,31.40
2022-08-17T01:08:24.844Z,32.10
2022-08-17T01:09:24.837Z,32.20
2022-08-17T01:10:59.082Z,31.20
2022-08-17T01:11:25.795Z,30.90
2022-08-17T01:12:24.787Z,31.30
2022-08-17T01:13:24.764Z,30.30
2022-08-17T01:14:24.766Z,30.00
2022-08-17T01:15:24.748Z,30.80
2022-08-17T01:16:24.724Z,31.30
2022-08-17T01:17:24.726Z,31.70
2022-08-17T01:18:24.795Z,32.40
2022-08-17T01:19:24.686Z,32.90
2022-08-17T01:20:24.680Z,31.30
2022-08-17T01:21:24.658Z,30.60
2022-08-17T01:22:24.650Z,33.70
2022-08-17T01:23:24.648Z,39.20
2022-08-17T01:24:24.738Z,46.20
2022-08-17T01:25:24.599Z,33.30
2022-08-17T01:26:24.602Z,56.90
2022-08-17T01:27:24.590Z,33.40
2022-08-17T01:28:40.701Z,31.80
2022-08-17T01:29:25.584Z,31.80
2022-08-17T01:30:58.722Z,32.40
2022-08-17T01:31:25.552Z,33.20
2022-08-17T01:32:24.513Z,39.50
2022-08-17T01:33:24.491Z,38.80
2022-08-17T01:34:24.485Z,41.10
2022-08-17T01:35:26.573Z,45.40
2022-08-17T01:36:24.443Z,32.70
2022-08-17T01:37:24.456Z,35.10
2022-08-17T01:38:27.170Z,54.40
2022-08-17T01:39:24.475Z,33.20
2022-08-17T01:40:24.418Z,45.10
2022-08-17T01:41:24.399Z,38.70
2022-08-17T01:42:24.374Z,33.00
2022-08-17T01:43:24.353Z,42.90
2022-08-17T01:44:24.350Z,34.00
2022-08-17T01:45:24.324Z,32.10
2022-08-17T01:46:24.331Z,35.70
2022-08-17T01:47:24.309Z,37.80
2022-08-17T01:48:24.277Z,43.70
2022-08-17T01:49:24.289Z,40.60
2022-08-17T01:50:24.248Z,38.50
2022-08-17T01:51:24.246Z,37.90
2022-08-17T01:52:24.240Z,36.70
2022-08-17T01:53:24.216Z,37.50
2022-08-17T01:54:24.211Z,41.90
2022-08-17T01:55:27.336Z,35.50
2022-08-17T01:56:24.181Z,36.20
2022-08-17T01:57:24.180Z,34.10
2022-08-17T01:58:24.143Z,33.60
2022-08-17T01:59:24.131Z,34.10
2022-08-17T02:00:24.155Z,35.10
2022-08-17T02:01:24.292Z,36.10
2022-08-17T02:02:30.321Z,41.60
2022-08-17T02:03:25.096Z,47.40
2022-08-17T02:04:24.061Z,73.30
2022-08-17T02:05:24.067Z,41.40
2022-08-17T02:06:27.308Z,37.10
2022-08-17T02:07:26.116Z,35.50
2022-08-17T02:08:39.232Z,36.90
2022-08-17T02:09:25.623Z,36.20
2022-08-17T02:10:24.028Z,34.10
2022-08-17T02:11:25.027Z,38.10
2022-08-17T02:12:47.939Z,44.70
2022-08-17T02:13:24.999Z,50.30
2022-08-17T02:14:23.939Z,50.60
2022-08-17T02:15:23.929Z,53.70
2022-08-17T02:16:23.896Z,50.40
2022-08-17T02:17:23.908Z,51.00
2022-08-17T02:18:23.870Z,46.50
2022-08-17T02:19:23.867Z,56.80
2022-08-17T02:20:41.863Z,48.90
2022-08-17T02:21:24.838Z,51.40
2022-08-17T02:22:23.832Z,43.10
2022-08-17T02:23:23.821Z,49.10
2022-08-17T02:24:59.674Z,52.30
2022-08-17T02:25:24.795Z,55.00
2022-08-17T02:26:24.101Z,48.80
2022-08-17T02:27:23.750Z,54.70
2022-08-17T02:28:23.774Z,46.70
2022-08-17T02:29:23.743Z,49.20
2022-08-17T02:31:00.858Z,46.80
2022-08-17T02:31:24.702Z,45.60
2022-08-17T02:32:27.349Z,49.90
2022-08-17T02:33:23.672Z,51.40
2022-08-17T02:34:24.668Z,53.30
2022-08-17T02:35:23.665Z,45.60
2022-08-17T02:36:27.336Z,43.00
2022-08-17T02:37:23.637Z,39.30
2022-08-17T02:38:23.603Z,40.50
2022-08-17T02:39:23.597Z,46.50
2022-08-17T02:40:35.679Z,43.00
2022-08-17T02:41:24.606Z,43.90
2022-08-17T02:42:23.560Z,42.70
2022-08-17T02:43:23.550Z,41.70
2022-08-17T02:44:39.294Z,43.70
2022-08-17T02:45:24.509Z,46.40
2022-08-17T02:46:23.510Z,46.90
2022-08-17T02:47:23.522Z,46.20
2022-08-17T02:48:30.955Z,71.00
2022-08-17T02:49:24.472Z,46.00
2022-08-17T02:50:23.442Z,63.70
2022-08-17T02:51:23.429Z,91.00
2022-08-17T02:52:42.505Z,63.10
2022-08-17T02:53:24.441Z,52.70
2022-08-17T02:54:40.538Z,55.40
2022-08-17T02:55:24.394Z,47.50
2022-08-17T02:56:23.361Z,53.60
2022-08-17T02:57:23.364Z,49.80
2022-08-17T02:58:35.156Z,43.20
2022-08-17T02:59:24.331Z,44.30
2022-08-17T03:00:23.315Z,54.80
2022-08-17T03:01:23.369Z,43.50
2022-08-17T03:02:23.297Z,45.20
2022-08-17T03:03:23.288Z,49.90
2022-08-17T03:04:23.254Z,51.30
2022-08-17T03:05:23.258Z,49.60
2022-08-17T03:06:23.225Z,51.80
2022-08-17T03:07:23.215Z,48.10
2022-08-17T03:08:23.242Z,52.30
2022-08-17T03:09:23.217Z,53.90
2022-08-17T03:10:23.198Z,58.60
2022-08-17T03:11:23.203Z,60.70
2022-08-17T03:12:23.147Z,66.30
2022-08-17T03:13:23.156Z,80.80
2022-08-17T03:14:26.191Z,71.70
2022-08-17T03:15:23.141Z,62.30
2022-08-17T03:16:23.106Z,72.30
2022-08-17T03:17:23.105Z,78.30
2022-08-17T03:18:25.482Z,81.60
2022-08-17T03:19:23.056Z,85.70
2022-08-17T03:20:23.052Z,107.10
2022-08-17T03:21:23.029Z,93.90
2022-08-17T03:22:36.085Z,91.90
2022-08-17T03:23:25.245Z,86.70
2022-08-17T03:24:26.814Z,80.30
2022-08-17T03:25:23.985Z,79.50
2022-08-17T03:26:23.083Z,96.60
2022-08-17T03:27:22.944Z,112.00
2022-08-17T03:28:22.935Z,106.30
2022-08-17T03:29:22.922Z,104.50
2022-08-17T03:30:22.916Z,92.30
2022-08-17T03:31:22.906Z,70.60
2022-08-17T03:32:22.983Z,62.60
2022-08-17T03:33:22.865Z,66.70
2022-08-17T03:34:22.857Z,60.90
2022-08-17T03:35:22.852Z,76.40
2022-08-17T03:36:22.814Z,72.50
2022-08-17T03:37:22.818Z,67.20
2022-08-17T03:38:23.276Z,67.20
2022-08-17T03:39:22.776Z,61.90
2022-08-17T03:40:39.886Z,66.80
2022-08-17T03:41:23.756Z,55.40
2022-08-17T03:42:31.485Z,50.60
2022-08-17T03:43:23.773Z,54.10
2022-08-17T03:44:22.707Z,54.80
2022-08-17T03:45:22.712Z,58.00
2022-08-17T03:46:28.310Z,59.00
2022-08-17T03:47:23.669Z,63.90
2022-08-17T03:48:22.671Z,61.30
2022-08-17T03:49:22.803Z,80.40
2022-08-17T03:50:22.630Z,79.60
2022-08-17T03:51:22.621Z,74.60
2022-08-17T03:52:22.614Z,60.60
2022-08-17T03:53:22.595Z,56.00
2022-08-17T03:54:22.593Z,59.80
2022-08-17T03:55:22.585Z,63.90
2022-08-17T03:56:23.541Z,57.50
2022-08-17T03:57:22.563Z,54.20
2022-08-17T03:58:22.514Z,53.10
2022-08-17T03:59:22.679Z,52.00
2022-08-17T04:00:22.527Z,54.60
2022-08-17T04:01:22.512Z,55.70
2022-08-17T04:02:22.484Z,61.00
2022-08-17T04:03:22.468Z,55.40
2022-08-17T04:04:28.014Z,57.50
2022-08-17T04:05:23.454Z,61.70
2022-08-17T04:06:22.428Z,75.00
2022-08-17T04:07:22.415Z,77.10
2022-08-17T04:08:22.386Z,84.60
2022-08-17T04:09:22.380Z,86.50
2022-08-17T04:10:26.297Z,78.40
2022-08-17T04:11:22.367Z,73.80
2022-08-17T04:12:22.350Z,80.60
2022-08-17T04:13:24.750Z,103.70
2022-08-17T04:14:22.320Z,112.10
2022-08-17T04:15:22.293Z,123.20
2022-08-17T04:16:22.278Z,140.40
2022-08-17T04:17:22.313Z,147.90
2022-08-17T04:18:22.249Z,141.60
2022-08-17T04:19:22.230Z,133.10
2022-08-17T04:20:22.235Z,165.30
2022-08-17T04:21:22.218Z,154.70
2022-08-17T04:22:33.343Z,127.10
2022-08-17T04:23:23.180Z,83.80
2022-08-17T04:24:22.187Z,79.60
2022-08-17T04:25:22.154Z,77.50
2022-08-17T04:26:52.464Z,98.90
2022-08-17T04:27:23.137Z,129.30
2022-08-17T04:28:22.114Z,129.80
2022-08-17T04:29:22.112Z,143.50
2022-08-17T04:30:22.085Z,106.80
2022-08-17T04:31:22.064Z,103.50
2022-08-17T04:32:58.541Z,94.20
2022-08-17T04:33:23.145Z,92.40
2022-08-17T04:34:22.058Z,73.80
2022-08-17T04:35:22.031Z,70.20
2022-08-17T04:36:22.006Z,67.10
2022-08-17T04:37:21.994Z,60.00
2022-08-17T04:38:22.001Z,59.20
2022-08-17T04:39:22.001Z,62.30
2022-08-17T04:40:21.948Z,63.20
2022-08-17T04:41:21.951Z,58.30
2022-08-17T04:42:21.928Z,59.40
2022-08-17T04:43:21.908Z,60.30
2022-08-17T04:44:37.117Z,64.60
2022-08-17T04:45:22.908Z,74.90
2022-08-17T04:46:21.885Z,79.30
2022-08-17T04:47:21.863Z,66.50
2022-08-17T04:48:21.843Z,67.20
2022-08-17T04:49:21.835Z,69.40
2022-08-17T04:50:21.818Z,63.00
2022-08-17T04:51:21.807Z,72.70
2022-08-17T04:52:29.667Z,72.40
2022-08-17T04:53:22.785Z,67.30
2022-08-17T04:54:21.762Z,63.90
2022-08-17T04:55:21.742Z,67.30
2022-08-17T04:56:21.856Z,67.70
2022-08-17T04:57:21.714Z,65.40
2022-08-17T04:58:21.726Z,69.10
2022-08-17T04:59:21.705Z,69.10
2022-08-17T05:00:21.705Z,64.50
2022-08-17T05:01:23.135Z,70.90
2022-08-17T05:02:21.765Z,70.50
2022-08-17T05:03:21.635Z,72.50
2022-08-17T05:04:34.089Z,72.30
2022-08-17T05:05:22.615Z,71.60
2022-08-17T05:06:21.611Z,72.00
2022-08-17T05:07:24.602Z,68.90
2022-08-17T05:08:21.691Z,72.90
2022-08-17T05:09:21.569Z,62.80
2022-08-17T05:10:21.547Z,59.90
2022-08-17T05:11:21.528Z,62.40
2022-08-17T05:12:21.532Z,61.20
2022-08-17T05:13:21.501Z,64.70
2022-08-17T05:14:21.513Z,60.50
2022-08-17T05:15:22.495Z,73.30
2022-08-17T05:16:21.473Z,66.10
2022-08-17T05:17:21.463Z,64.20
2022-08-17T05:18:21.441Z,67.50
2022-08-17T05:19:21.452Z,66.30
2022-08-17T05:20:21.425Z,67.80
2022-08-17T05:21:21.393Z,68.10
2022-08-17T05:22:21.395Z,72.20
2022-08-17T05:23:21.386Z,76.40
2022-08-17T05:24:40.696Z,71.30
2022-08-17T05:25:25.694Z,67.30
2022-08-17T05:26:26.256Z,67.60
2022-08-17T05:27:22.327Z,71.30
2022-08-17T05:28:26.556Z,81.40
2022-08-17T05:29:22.300Z,75.80
2022-08-17T05:30:22.277Z,75.80
2022-08-17T05:31:21.264Z,74.90
2022-08-17T05:32:39.625Z,78.80
2022-08-17T05:33:22.235Z,80.30
2022-08-17T05:34:21.241Z,75.90
2022-08-17T05:35:21.220Z,79.00
2022-08-17T05:36:43.580Z,79.70
2022-08-17T05:37:22.191Z,78.70
2022-08-17T05:38:21.168Z,83.30
2022-08-17T05:39:21.148Z,82.20
2022-08-17T05:40:21.161Z,91.30
2022-08-17T05:41:21.243Z,89.10
2022-08-17T05:42:21.117Z,94.50
2022-08-17T05:43:21.099Z,105.00
2022-08-17T05:44:21.104Z,97.10
2022-08-17T05:45:32.127Z,99.30
2022-08-17T05:46:22.095Z,81.10
2022-08-17T05:47:21.065Z,68.20
2022-08-17T05:48:21.031Z,65.30
2022-08-17T05:49:22.027Z,65.60
2022-08-17T05:50:24.406Z,66.60
2022-08-17T05:51:21.982Z,68.30
2022-08-17T05:52:21.014Z,70.80
2022-08-17T05:53:20.957Z,62.80
2022-08-17T05:54:20.967Z,65.90
2022-08-17T05:55:20.948Z,68.10
2022-08-17T05:56:30.250Z,66.50
2022-08-17T05:57:21.906Z,72.20
2022-08-17T05:58:20.909Z,73.80
2022-08-17T05:59:20.889Z,68.60
2022-08-17T06:00:20.866Z,72.70
2022-08-17T06:01:21.925Z,67.80
2022-08-17T06:02:20.866Z,78.70
2022-08-17T06:03:20.823Z,70.60
2022-08-17T06:04:20.830Z,68.30
2022-08-17T06:05:20.798Z,68.40
2022-08-17T06:06:20.802Z,68.10
2022-08-17T06:07:20.792Z,65.60
2022-08-17T06:08:20.868Z,69.20
2022-08-17T06:09:26.665Z,66.90
2022-08-17T06:10:21.740Z,67.90
2022-08-17T06:11:20.721Z,66.30
2022-08-17T06:12:20.723Z,69.60
2022-08-17T06:13:20.681Z,69.50
2022-08-17T06:14:20.803Z,72.50
2022-08-17T06:15:20.679Z,73.20
2022-08-17T06:16:32.842Z,68.80
2022-08-17T06:17:21.645Z,72.40
2022-08-17T06:18:20.622Z,71.10
2022-08-17T06:19:20.604Z,74.60
2022-08-17T06:20:20.617Z,87.20
2022-08-17T06:21:20.584Z,85.10
2022-08-17T06:22:21.578Z,72.30
2022-08-17T06:23:20.570Z,97.50
2022-08-17T06:24:20.546Z,100.20
2022-08-17T06:25:20.548Z,104.80
2022-08-17T06:26:20.525Z,103.20
2022-08-17T06:27:20.519Z,108.00
2022-08-17T06:28:20.502Z,106.50
2022-08-17T06:29:20.488Z,103.70
2022-08-17T06:30:20.487Z,154.80
2022-08-17T06:31:20.447Z,134.40
2022-08-17T06:32:20.453Z,121.30
2022-08-17T06:33:20.423Z,130.80
2022-08-17T06:34:20.430Z,149.50
2022-08-17T06:35:20.404Z,142.60
2022-08-17T06:36:20.389Z,144.90
2022-08-17T06:37:20.385Z,145.20
2022-08-17T06:38:38.470Z,154.70
2022-08-17T06:39:21.341Z,153.30
2022-08-17T06:40:20.354Z,140.50
2022-08-17T06:41:20.343Z,127.20
2022-08-17T06:43:02.111Z,149.30
2022-08-17T06:43:21.296Z,114.10
2022-08-17T06:44:50.310Z,114.60
2022-08-17T06:45:21.262Z,109.60
2022-08-17T06:46:20.268Z,117.30
2022-08-17T06:47:28.479Z,143.80
2022-08-17T06:48:21.225Z,109.30
2022-08-17T06:49:20.218Z,112.30
2022-08-17T06:50:20.196Z,101.70
2022-08-17T06:51:20.175Z,140.30
2022-08-17T06:52:45.738Z,190.80
2022-08-17T06:53:21.187Z,121.80
2022-08-17T06:54:20.155Z,112.90
2022-08-17T06:55:20.135Z,135.60
2022-08-17T06:56:20.108Z,79.00
2022-08-17T06:57:20.128Z,118.50
2022-08-17T06:58:20.079Z,71.10
2022-08-17T06:59:20.069Z,79.60
2022-08-17T07:00:20.073Z,149.80
2022-08-17T07:01:20.130Z,94.30
2022-08-17T07:02:20.028Z,82.90
2022-08-17T07:03:21.019Z,60.20
2022-08-17T07:04:20.074Z,170.30
2022-08-17T07:05:19.981Z,124.40
2022-08-17T07:06:19.987Z,92.50
2022-08-17T07:07:19.977Z,126.70
2022-08-17T07:08:19.942Z,182.90
2022-08-17T07:09:20.057Z,108.00
2022-08-17T07:10:19.922Z,71.20
2022-08-17T07:11:19.903Z,153.50
2022-08-17T07:12:19.908Z,95.50
2022-08-17T07:13:19.874Z,77.50
2022-08-17T07:14:19.890Z,157.40
2022-08-17T07:15:19.867Z,87.40
2022-08-17T07:16:19.836Z,58.60
2022-08-17T07:17:19.839Z,102.70
2022-08-17T07:18:19.816Z,139.40
2022-08-17T07:19:19.798Z,130.10
2022-08-17T07:20:19.911Z,99.70
2022-08-17T07:21:22.963Z,88.20
2022-08-17T07:22:20.776Z,150.50
2022-08-17T07:23:19.754Z,76.90
2022-08-17T07:24:28.123Z,103.60
2022-08-17T07:25:21.021Z,98.00
2022-08-17T07:26:19.710Z,69.60
2022-08-17T07:27:19.699Z,112.90
2022-08-17T07:28:19.702Z,115.90
2022-08-17T07:29:19.661Z,99.70
2022-08-17T07:30:19.664Z,74.70
2022-08-17T07:31:19.664Z,72.60
2022-08-17T07:32:19.622Z,86.80
2022-08-17T07:33:19.604Z,62.00
2022-08-17T07:34:19.615Z,70.40
2022-08-17T07:35:19.999Z,40.00
2022-08-17T07:36:19.574Z,39.60
2022-08-17T07:37:19.583Z,42.40
2022-08-17T07:38:25.330Z,97.70
2022-08-17T07:39:20.526Z,81.10
2022-08-17T07:40:19.583Z,141.50
2022-08-17T07:41:19.497Z,80.40
2022-08-17T07:42:19.500Z,41.00
2022-08-17T07:43:23.266Z,76.60
2022-08-17T07:44:19.466Z,108.30
2022-08-17T07:45:19.461Z,113.20
2022-08-17T07:46:19.468Z,129.00
2022-08-17T07:47:19.418Z,76.00
2022-08-17T07:48:19.422Z,53.00
2022-08-17T07:49:19.405Z,56.10
2022-08-17T07:50:23.930Z,124.30
2022-08-17T07:51:20.391Z,104.70
2022-08-17T07:52:48.339Z,70.90
2022-08-17T07:53:20.332Z,120.60
2022-08-17T07:54:19.346Z,66.60
2022-08-17T07:55:19.326Z,46.50
2022-08-17T07:56:19.302Z,88.20
2022-08-17T07:57:19.307Z,108.20
2022-08-17T07:58:19.282Z,105.10
2022-08-17T07:59:23.386Z,53.40
2022-08-17T08:00:19.266Z,77.40
2022-08-17T08:01:20.276Z,42.70
2022-08-17T08:02:19.297Z,79.90
2022-08-17T08:03:19.218Z,66.10
2022-08-17T08:04:21.346Z,80.50
2022-08-17T08:05:31.739Z,72.00
2022-08-17T08:06:20.185Z,81.60
2022-08-17T08:07:19.201Z,74.00
2022-08-17T08:08:19.138Z,102.10
2022-08-17T08:09:19.135Z,71.00
2022-08-17T08:10:19.117Z,71.90
2022-08-17T08:11:19.122Z,65.30
2022-08-17T08:12:19.102Z,149.80
2022-08-17T08:13:19.098Z,112.40
2022-08-17T08:14:19.074Z,136.20
2022-08-17T08:15:19.154Z,61.60
2022-08-17T08:16:19.031Z,72.30
2022-08-17T08:17:19.038Z,84.90
2022-08-17T08:18:19.012Z,109.80
2022-08-17T08:19:21.191Z,92.00
2022-08-17T08:20:47.650Z,170.30
2022-08-17T08:21:19.972Z,79.70
2022-08-17T08:22:18.967Z,69.40
2022-08-17T08:23:18.958Z,69.80
2022-08-17T08:24:18.956Z,62.20
2022-08-17T08:25:18.937Z,62.70
2022-08-17T08:26:19.008Z,60.00
2022-08-17T08:27:18.902Z,82.10
2022-08-17T08:28:18.889Z,97.80
2022-08-17T08:29:18.857Z,70.30
2022-08-17T08:30:18.872Z,63.90
2022-08-17T08:31:18.842Z,75.10
2022-08-17T08:32:18.818Z,72.80
2022-08-17T08:33:18.823Z,73.40
2022-08-17T08:34:55.877Z,75.40
2022-08-17T08:35:19.817Z,72.90
2022-08-17T08:37:12.682Z,111.20
2022-08-17T08:37:30.380Z,68.60
2022-08-17T08:38:19.732Z,77.60
2022-08-17T08:39:18.721Z,102.40
2022-08-17T08:40:18.724Z,68.50
2022-08-17T08:41:18.700Z,70.00
2022-08-17T08:42:18.712Z,59.90
2022-08-17T08:43:18.863Z,64.80
2022-08-17T08:44:18.653Z,87.40
2022-08-17T08:45:18.658Z,69.90
2022-08-17T08:46:19.789Z,56.30
2022-08-17T08:47:18.635Z,62.00
2022-08-17T08:48:52.750Z,72.60
2022-08-17T08:49:19.588Z,144.50
2022-08-17T08:50:37.120Z,137.90
2022-08-17T08:51:19.603Z,109.10
2022-08-17T08:52:18.537Z,88.10
2022-08-17T08:53:18.528Z,79.80
2022-08-17T08:54:26.735Z,154.60
2022-08-17T08:55:19.522Z,111.20
2022-08-17T08:56:18.489Z,62.50
2022-08-17T08:57:32.797Z,72.60
2022-08-17T08:58:31.802Z,148.20
2022-08-17T08:59:19.465Z,80.00
2022-08-17T09:00:18.526Z,113.20
2022-08-17T09:01:18.468Z,102.20
2022-08-17T09:02:18.425Z,61.70
2022-08-17T09:03:18.425Z,105.40
2022-08-17T09:04:24.822Z,91.40
2022-08-17T09:05:19.394Z,67.70
2022-08-17T09:06:37.644Z,170.00
2022-08-17T09:07:19.355Z,54.80
2022-08-17T09:08:18.361Z,80.30
2022-08-17T09:09:18.338Z,116.20
2022-08-17T09:10:18.337Z,110.50
2022-08-17T09:11:18.303Z,93.80
2022-08-17T09:12:18.290Z,69.60
2022-08-17T09:13:18.307Z,48.80
2022-08-17T09:14:21.863Z,117.50
2022-08-17T09:15:19.261Z,66.30
2022-08-17T09:16:18.228Z,47.10
2022-08-17T09:17:18.421Z,54.70
2022-08-17T09:19:00.556Z,94.90
2022-08-17T09:19:19.206Z,83.40
2022-08-17T09:20:27.988Z,131.20
2022-08-17T09:21:19.171Z,87.40
2022-08-17T09:22:18.166Z,50.60
2022-08-17T09:23:18.155Z,72.50
2022-08-17T09:24:20.701Z,166.70
2022-08-17T09:25:18.126Z,178.70
2022-08-17T09:26:18.102Z,87.90
2022-08-17T09:27:18.104Z,148.20
2022-08-17T09:28:18.087Z,111.20
2022-08-17T09:29:18.067Z,118.00
2022-08-17T09:30:18.097Z,58.60
2022-08-17T09:31:18.058Z,179.40
2022-08-17T09:32:18.094Z,192.50
2022-08-17T09:33:18.030Z,109.10
2022-08-17T09:34:17.998Z,105.90
2022-08-17T09:35:17.998Z,129.10
2022-08-17T09:36:17.982Z,150.50
2022-08-17T09:37:17.969Z,120.80
2022-08-17T09:38:17.961Z,84.10
2022-08-17T09:39:17.952Z,87.10
2022-08-17T09:40:18.002Z,187.70
2022-08-17T09:41:17.911Z,242.20
2022-08-17T09:42:17.970Z,149.20
2022-08-17T09:43:17.895Z,137.60
2022-08-17T09:44:23.005Z,135.90
2022-08-17T09:45:18.876Z,71.90
2022-08-17T09:46:17.871Z,120.20
2022-08-17T09:47:17.842Z,154.00
2022-08-17T09:48:18.188Z,195.20
2022-08-17T09:49:21.850Z,202.30
2022-08-17T09:50:18.806Z,153.80
2022-08-17T09:51:18.818Z,144.90
2022-08-17T09:52:17.924Z,114.30
2022-08-17T09:53:17.775Z,108.00
2022-08-17T09:54:37.961Z,163.90
2022-08-17T09:55:18.723Z,131.10
2022-08-17T09:56:17.722Z,144.60
2022-08-17T09:57:29.818Z,132.10
2022-08-17T09:58:18.680Z,191.60
2022-08-17T09:59:17.676Z,170.90
2022-08-17T10:00:17.676Z,92.70
2022-08-17T10:01:17.719Z,74.80
2022-08-17T10:02:17.710Z,165.40
2022-08-17T10:03:17.640Z,159.10
2022-08-17T10:04:20.119Z,131.80
2022-08-17T10:05:17.605Z,76.00
2022-08-17T10:06:22.042Z,163.90
2022-08-17T10:07:17.563Z,80.90
2022-08-17T10:08:17.566Z,113.20
2022-08-17T10:09:17.542Z,68.70
2022-08-17T10:10:17.674Z,53.10
2022-08-17T10:11:17.537Z,33.90
2022-08-17T10:12:17.823Z,28.70
2022-08-17T10:13:18.298Z,64.00
2022-08-17T10:14:36.702Z,108.10
2022-08-17T10:15:18.479Z,103.00
2022-08-17T10:16:17.448Z,156.20
2022-08-17T10:17:17.462Z,78.70
2022-08-17T10:18:17.417Z,57.40
2022-08-17T10:19:17.438Z,41.90
2022-08-17T10:20:17.404Z,101.80
2022-08-17T10:21:17.378Z,56.50
2022-08-17T10:22:34.570Z,86.20
2022-08-17T10:23:18.373Z,118.50
2022-08-17T10:24:17.339Z,68.70
2022-08-17T10:25:22.912Z,39.50
2022-08-17T10:26:18.311Z,92.30
2022-08-17T10:27:17.302Z,66.80
2022-08-17T10:28:19.908Z,95.70
2022-08-17T10:29:17.288Z,115.80
2022-08-17T10:30:17.276Z,114.70
2022-08-17T10:31:34.147Z,66.30
2022-08-17T10:32:18.233Z,54.50
2022-08-17T10:33:17.257Z,52.60
2022-08-17T10:34:17.205Z,76.00
2022-08-17T10:35:17.207Z,127.20
2022-08-17T10:36:17.199Z,177.00
2022-08-17T10:37:17.175Z,163.80
2022-08-17T10:38:17.171Z,62.50
2022-08-17T10:39:17.160Z,64.60
2022-08-17T10:40:17.214Z,124.70
2022-08-17T10:41:17.253Z,70.30
2022-08-17T10:42:30.136Z,73.00
2022-08-17T10:43:18.099Z,95.10
2022-08-17T10:44:37.031Z,77.50
2022-08-17T10:45:18.083Z,73.20
2022-08-17T10:46:30.441Z,96.50
2022-08-17T10:47:18.061Z,63.40
2022-08-17T10:48:17.043Z,75.80
2022-08-17T10:49:17.061Z,100.90
2022-08-17T10:50:17.018Z,95.30
2022-08-17T10:51:17.006Z,137.10
2022-08-17T10:52:17.113Z,88.10
2022-08-17T10:53:19.930Z,66.30
2022-08-17T10:54:16.953Z,35.40
2022-08-17T10:55:16.945Z,64.40
2022-08-17T10:56:16.938Z,42.90
2022-08-17T10:57:16.914Z,64.80
2022-08-17T10:58:16.909Z,95.30
2022-08-17T10:59:16.910Z,66.20
2022-08-17T11:00:16.866Z,76.80
2022-08-17T11:01:16.900Z,59.80
2022-08-17T11:02:16.861Z,107.10
2022-08-17T11:03:16.851Z,56.10
2022-08-17T11:04:16.838Z,65.80
2022-08-17T11:05:16.824Z,79.20
2022-08-17T11:06:16.796Z,36.70
2022-08-17T11:07:16.781Z,53.90
2022-08-17T11:08:17.375Z,39.00
2022-08-17T11:09:16.763Z,65.50
2022-08-17T11:10:16.754Z,40.00
2022-08-17T11:11:16.744Z,38.60
2022-08-17T11:12:16.711Z,31.20
2022-08-17T11:13:16.725Z,75.80
2022-08-17T11:14:16.722Z,72.50
2022-08-17T11:15:16.683Z,129.40
2022-08-17T11:16:16.687Z,78.50
2022-08-17T11:17:16.667Z,84.10
2022-08-17T11:18:16.636Z,56.70
2022-08-17T11:19:16.625Z,107.90
2022-08-17T11:20:16.629Z,92.30
2022-08-17T11:21:16.604Z,92.40
2022-08-17T11:22:16.607Z,53.50
2022-08-17T11:23:16.590Z,53.10
2022-08-17T11:24:16.576Z,28.80
2022-08-17T11:25:16.696Z,62.10
2022-08-17T11:26:16.530Z,74.40
2022-08-17T11:27:16.536Z,113.80
2022-08-17T11:28:18.057Z,136.00
2022-08-17T11:29:16.499Z,68.60
2022-08-17T11:30:16.501Z,54.50
2022-08-17T11:31:16.494Z,56.50
2022-08-17T11:32:16.462Z,55.00
2022-08-17T11:33:16.473Z,68.70
2022-08-17T11:34:16.432Z,54.50
2022-08-17T11:35:16.422Z,60.60
2022-08-17T11:36:16.537Z,68.30
2022-08-17T11:37:16.394Z,100.20
2022-08-17T11:38:16.846Z,98.70
2022-08-17T11:39:16.388Z,104.60
2022-08-17T11:40:16.418Z,56.70
2022-08-17T11:41:16.361Z,52.10
2022-08-17T11:42:16.345Z,48.00
2022-08-17T11:43:16.326Z,22.70
2022-08-17T11:44:16.321Z,15.00
2022-08-17T11:45:31.618Z,72.80
2022-08-17T11:46:17.292Z,105.80
2022-08-17T11:47:16.310Z,58.40
2022-08-17T11:48:27.970Z,38.90
2022-08-17T11:49:17.239Z,25.40
2022-08-17T11:50:16.241Z,40.20
2022-08-17T11:51:16.232Z,40.00
2022-08-17T11:52:16.202Z,68.80
2022-08-17T11:53:16.315Z,32.60
2022-08-17T11:54:32.327Z,67.70
2022-08-17T11:55:34.439Z,29.70
2022-08-17T11:56:17.167Z,20.40
2022-08-17T11:57:16.143Z,40.80
2022-08-17T11:58:16.138Z,71.40
2022-08-17T11:59:16.134Z,53.20
2022-08-17T12:00:16.095Z,55.90
2022-08-17T12:01:16.294Z,63.80
2022-08-17T12:02:16.076Z,85.90
2022-08-17T12:03:16.132Z,66.60
2022-08-17T12:04:16.112Z,48.50
2022-08-17T12:05:16.051Z,53.70
2022-08-17T12:06:16.017Z,71.80
2022-08-17T12:07:16.017Z,91.30
2022-08-17T12:08:16.018Z,79.20
2022-08-17T12:09:15.988Z,71.60
2022-08-17T12:10:15.990Z,51.30
2022-08-17T12:11:15.972Z,40.10
2022-08-17T12:12:15.991Z,57.10
2022-08-17T12:13:15.969Z,58.50
2022-08-17T12:14:20.147Z,65.30
2022-08-17T12:15:16.913Z,37.40
2022-08-17T12:16:15.906Z,31.20
2022-08-17T12:17:39.314Z,64.50
2022-08-17T12:18:16.888Z,97.20
2022-08-17T12:19:15.877Z,86.60
2022-08-17T12:20:15.875Z,82.70
2022-08-17T12:21:15.833Z,74.60
2022-08-17T12:22:15.832Z,45.80
2022-08-17T12:23:15.821Z,41.30
2022-08-17T12:24:15.787Z,64.70
2022-08-17T12:25:15.800Z,53.90
2022-08-17T12:26:15.806Z,70.20
2022-08-17T12:27:15.757Z,110.00
2022-08-17T12:28:19.712Z,98.30
2022-08-17T12:29:18.123Z,87.20
2022-08-17T12:30:16.737Z,92.70
2022-08-17T12:31:15.731Z,43.90
2022-08-17T12:32:15.700Z,50.50
2022-08-17T12:33:27.909Z,95.80
2022-08-17T12:34:16.660Z,97.00
2022-08-17T12:35:15.652Z,77.30
2022-08-17T12:36:15.655Z,44.60
2022-08-17T12:37:15.637Z,69.00
2022-08-17T12:38:32.744Z,129.00
2022-08-17T12:39:21.171Z,81.30
2022-08-17T12:40:16.609Z,89.80
2022-08-17T12:41:15.573Z,54.20
2022-08-17T12:42:15.587Z,68.60
2022-08-17T12:43:15.567Z,86.80
2022-08-17T12:44:15.545Z,51.60
2022-08-17T12:45:15.536Z,24.90
2022-08-17T12:46:15.621Z,25.10
2022-08-17T12:47:21.009Z,27.30